sensor_id;sensor_type;location;lat;lon;timestamp;P1;durP1;ratioP1;P2;durP2;ratioP2
24801;SDS011;12898;50.520;12.152;2022-08-20T00:02:24;17.75;;;13.68;;
24801;SDS011;12898;50.520;12.152;2022-08-20T00:04:50;19.52;;;14.48;;
24801;SDS011;12898;50.520;12.152;2022-08-20T00:07:16;18.40;;;14.27;;
24801;SDS011;12898;50.520;12.152;2022-08-20T00:09:43;21.02;;;15.80;;
24801;SDS011;12898;50.520;12.152;2022-08-20T00:12:09;24.48;;;17.88;;
24801;SDS011;12898;50.520;12.152;2022-08-20T00:14:37;20.75;;;17.45;;
24801;SDS011;12898;50.520;12.152;2022-08-20T00:17:04;21.50;;;17.25;;
24801;SDS011;12898;50.520;12.152;2022-08-20T00:19:30;21.25;;;17.10;;
24801;SDS011;12898;50.520;12.152;2022-08-20T00:21:55;23.25;;;16.73;;
24801;SDS011;12898;50.520;12.152;2022-08-20T00:24:21;24.95;;;17.75;;
24801;SDS011;12898;50.520;12.152;2022-08-20T00:26:47;19.00;;;14.77;;
24801;SDS011;12898;50.520;12.152;2022-08-20T00:29:13;19.05;;;14.70;;
24801;SDS011;12898;50.520;12.152;2022-08-20T00:31:40;19.77;;;15.88;;
24801;SDS011;12898;50.520;12.152;2022-08-20T00:34:06;18.92;;;14.93;;
24801;SDS011;12898;50.520;12.152;2022-08-20T00:36:32;19.63;;;15.02;;
24801;SDS011;12898;50.520;12.152;2022-08-20T00:38:57;22.25;;;14.23;;
24801;SDS011;12898;50.520;12.152;2022-08-20T00:41:24;19.25;;;15.52;;
24801;SDS011;12898;50.520;12.152;2022-08-20T00:44:03;17.17;;;13.93;;
24801;SDS011;12898;50.520;12.152;2022-08-20T00:46:32;20.77;;;15.45;;
24801;SDS011;12898;50.520;12.152;2022-08-20T00:48:59;20.58;;;16.00;;
24801;SDS011;12898;50.520;12.152;2022-08-20T00:51:31;19.88;;;14.25;;
24801;SDS011;12898;50.520;12.152;2022-08-20T00:54:06;20.13;;;16.42;;
24801;SDS011;12898;50.520;12.152;2022-08-20T00:57:31;21.17;;;15.68;;
24801;SDS011;12898;50.520;12.152;2022-08-20T01:00:38;20.40;;;14.23;;
24801;SDS011;12898;50.520;12.152;2022-08-20T01:03:09;19.25;;;14.30;;
24801;SDS011;12898;50.520;12.152;2022-08-20T01:05:40;15.85;;;11.18;;
24801;SDS011;12898;50.520;12.152;2022-08-20T01:08:12;14.73;;;10.38;;
24801;SDS011;12898;50.520;12.152;2022-08-20T01:10:41;13.80;;;10.65;;
24801;SDS011;12898;50.520;12.152;2022-08-20T01:13:13;14.55;;;10.40;;
24801;SDS011;12898;50.520;12.152;2022-08-20T01:15:44;13.32;;;9.73;;
24801;SDS011;12898;50.520;12.152;2022-08-20T01:18:15;15.13;;;10.27;;
24801;SDS011;12898;50.520;12.152;2022-08-20T01:20:47;14.25;;;10.48;;
24801;SDS011;12898;50.520;12.152;2022-08-20T01:23:27;15.20;;;10.98;;
24801;SDS011;12898;50.520;12.152;2022-08-20T01:26:22;14.90;;;10.90;;
24801;SDS011;12898;50.520;12.152;2022-08-20T01:28:59;12.38;;;8.82;;
24801;SDS011;12898;50.520;12.152;2022-08-20T01:31:31;14.88;;;8.50;;
24801;SDS011;12898;50.520;12.152;2022-08-20T01:34:00;10.13;;;7.20;;
24801;SDS011;12898;50.520;12.152;2022-08-20T01:36:33;11.18;;;7.72;;
24801;SDS011;12898;50.520;12.152;2022-08-20T01:39:08;13.25;;;7.22;;
24801;SDS011;12898;50.520;12.152;2022-08-20T01:41:40;11.40;;;6.63;;
24801;SDS011;12898;50.520;12.152;2022-08-20T01:44:18;9.25;;;6.32;;
24801;SDS011;12898;50.520;12.152;2022-08-20T01:46:46;10.43;;;6.82;;
24801;SDS011;12898;50.520;12.152;2022-08-20T01:51:42;8.63;;;5.40;;
24801;SDS011;12898;50.520;12.152;2022-08-20T01:54:08;12.30;;;6.15;;
24801;SDS011;12898;50.520;12.152;2022-08-20T01:56:34;12.98;;;5.97;;
24801;SDS011;12898;50.520;12.152;2022-08-20T01:59:15;9.38;;;5.75;;
24801;SDS011;12898;50.520;12.152;2022-08-20T02:01:40;8.13;;;5.60;;
24801;SDS011;12898;50.520;12.152;2022-08-20T02:04:07;10.20;;;6.82;;
24801;SDS011;12898;50.520;12.152;2022-08-20T02:06:39;13.60;;;6.85;;
24801;SDS011;12898;50.520;12.152;2022-08-20T02:09:09;11.93;;;7.00;;
24801;SDS011;12898;50.520;12.152;2022-08-20T02:11:35;13.52;;;6.93;;
24801;SDS011;12898;50.520;12.152;2022-08-20T02:14:04;10.35;;;6.80;;
24801;SDS011;12898;50.520;12.152;2022-08-20T02:16:33;10.43;;;7.40;;
24801;SDS011;12898;50.520;12.152;2022-08-20T02:21:47;10.60;;;7.10;;
24801;SDS011;12898;50.520;12.152;2022-08-20T02:24:17;11.93;;;7.18;;
24801;SDS011;12898;50.520;12.152;2022-08-20T02:26:44;12.88;;;7.30;;
24801;SDS011;12898;50.520;12.152;2022-08-20T02:29:11;14.18;;;7.53;;
24801;SDS011;12898;50.520;12.152;2022-08-20T02:31:38;12.73;;;7.30;;
24801;SDS011;12898;50.520;12.152;2022-08-20T02:34:06;10.02;;;6.85;;
24801;SDS011;12898;50.520;12.152;2022-08-20T02:36:33;11.25;;;7.55;;
24801;SDS011;12898;50.520;12.152;2022-08-20T02:39:05;13.55;;;7.57;;
24801;SDS011;12898;50.520;12.152;2022-08-20T02:41:34;14.43;;;8.27;;
24801;SDS011;12898;50.520;12.152;2022-08-20T02:44:02;11.95;;;7.45;;
24801;SDS011;12898;50.520;12.152;2022-08-20T02:46:29;13.70;;;8.45;;
24801;SDS011;12898;50.520;12.152;2022-08-20T02:48:55;12.73;;;9.18;;
24801;SDS011;12898;50.520;12.152;2022-08-20T02:51:22;15.25;;;9.57;;
24801;SDS011;12898;50.520;12.152;2022-08-20T02:53:48;12.05;;;7.78;;
24801;SDS011;12898;50.520;12.152;2022-08-20T02:56:14;13.85;;;8.38;;
24801;SDS011;12898;50.520;12.152;2022-08-20T02:58:41;15.52;;;8.75;;
24801;SDS011;12898;50.520;12.152;2022-08-20T03:01:09;12.18;;;8.13;;
24801;SDS011;12898;50.520;12.152;2022-08-20T03:03:38;12.75;;;7.68;;
24801;SDS011;12898;50.520;12.152;2022-08-20T03:06:06;11.70;;;7.68;;
24801;SDS011;12898;50.520;12.152;2022-08-20T03:08:36;11.15;;;7.43;;
24801;SDS011;12898;50.520;12.152;2022-08-20T03:11:03;10.77;;;7.70;;
24801;SDS011;12898;50.520;12.152;2022-08-20T03:13:29;10.88;;;7.97;;
24801;SDS011;12898;50.520;12.152;2022-08-20T03:15:56;11.52;;;7.80;;
24801;SDS011;12898;50.520;12.152;2022-08-20T03:18:25;10.15;;;7.43;;
24801;SDS011;12898;50.520;12.152;2022-08-20T03:20:58;11.07;;;7.85;;
24801;SDS011;12898;50.520;12.152;2022-08-20T03:23:24;12.98;;;8.23;;
24801;SDS011;12898;50.520;12.152;2022-08-20T03:25:50;12.35;;;8.18;;
24801;SDS011;12898;50.520;12.152;2022-08-20T03:28:15;10.65;;;7.68;;
24801;SDS011;12898;50.520;12.152;2022-08-20T03:30:41;11.95;;;7.88;;
24801;SDS011;12898;50.520;12.152;2022-08-20T03:33:07;11.70;;;8.45;;
24801;SDS011;12898;50.520;12.152;2022-08-20T03:35:34;12.48;;;8.48;;
24801;SDS011;12898;50.520;12.152;2022-08-20T03:38:04;11.57;;;7.90;;
24801;SDS011;12898;50.520;12.152;2022-08-20T03:40:33;11.43;;;8.05;;
24801;SDS011;12898;50.520;12.152;2022-08-20T03:42:59;12.18;;;8.07;;
24801;SDS011;12898;50.520;12.152;2022-08-20T03:45:25;13.32;;;8.68;;
24801;SDS011;12898;50.520;12.152;2022-08-20T03:47:53;13.40;;;8.77;;
24801;SDS011;12898;50.520;12.152;2022-08-20T03:50:21;12.50;;;8.50;;
24801;SDS011;12898;50.520;12.152;2022-08-20T03:52:50;13.05;;;8.57;;
24801;SDS011;12898;50.520;12.152;2022-08-20T03:55:18;13.20;;;9.07;;
24801;SDS011;12898;50.520;12.152;2022-08-20T03:57:48;12.38;;;8.95;;
24801;SDS011;12898;50.520;12.152;2022-08-20T04:00:19;13.52;;;9.52;;
24801;SDS011;12898;50.520;12.152;2022-08-20T04:03:02;13.50;;;9.35;;
24801;SDS011;12898;50.520;12.152;2022-08-20T04:05:29;22.27;;;9.68;;
24801;SDS011;12898;50.520;12.152;2022-08-20T04:07:56;13.52;;;8.60;;
24801;SDS011;12898;50.520;12.152;2022-08-20T04:10:23;15.15;;;9.23;;
24801;SDS011;12898;50.520;12.152;2022-08-20T04:12:49;12.82;;;8.70;;
24801;SDS011;12898;50.520;12.152;2022-08-20T04:15:15;12.10;;;9.15;;
24801;SDS011;12898;50.520;12.152;2022-08-20T04:17:43;13.95;;;9.85;;
24801;SDS011;12898;50.520;12.152;2022-08-20T04:20:13;13.75;;;9.60;;
24801;SDS011;12898;50.520;12.152;2022-08-20T04:22:43;15.32;;;8.77;;
24801;SDS011;12898;50.520;12.152;2022-08-20T04:25:10;11.32;;;8.13;;
24801;SDS011;12898;50.520;12.152;2022-08-20T04:27:36;15.40;;;8.65;;
24801;SDS011;12898;50.520;12.152;2022-08-20T04:30:04;15.27;;;9.18;;
24801;SDS011;12898;50.520;12.152;2022-08-20T04:32:34;12.80;;;8.77;;
24801;SDS011;12898;50.520;12.152;2022-08-20T04:35:05;12.60;;;8.65;;
24801;SDS011;12898;50.520;12.152;2022-08-20T04:37:33;12.30;;;9.00;;
24801;SDS011;12898;50.520;12.152;2022-08-20T04:40:05;12.70;;;8.82;;
24801;SDS011;12898;50.520;12.152;2022-08-20T04:42:53;13.88;;;9.00;;
24801;SDS011;12898;50.520;12.152;2022-08-20T04:45:20;12.98;;;8.63;;
24801;SDS011;12898;50.520;12.152;2022-08-20T04:47:49;14.10;;;9.27;;
24801;SDS011;12898;50.520;12.152;2022-08-20T04:50:15;12.75;;;9.55;;
24801;SDS011;12898;50.520;12.152;2022-08-20T04:52:43;25.40;;;11.13;;
24801;SDS011;12898;50.520;12.152;2022-08-20T04:55:08;14.80;;;10.50;;
24801;SDS011;12898;50.520;12.152;2022-08-20T04:57:35;13.80;;;10.27;;
24801;SDS011;12898;50.520;12.152;2022-08-20T05:00:04;14.00;;;9.80;;
24801;SDS011;12898;50.520;12.152;2022-08-20T05:02:34;14.93;;;10.10;;
24801;SDS011;12898;50.520;12.152;2022-08-20T05:05:02;17.85;;;11.50;;
24801;SDS011;12898;50.520;12.152;2022-08-20T05:07:36;13.52;;;9.40;;
24801;SDS011;12898;50.520;12.152;2022-08-20T05:10:08;14.95;;;10.43;;
24801;SDS011;12898;50.520;12.152;2022-08-20T05:12:36;15.77;;;10.43;;
24801;SDS011;12898;50.520;12.152;2022-08-20T05:15:05;14.02;;;9.15;;
24801;SDS011;12898;50.520;12.152;2022-08-20T05:17:31;14.30;;;9.45;;
24801;SDS011;12898;50.520;12.152;2022-08-20T05:19:57;13.45;;;10.15;;
24801;SDS011;12898;50.520;12.152;2022-08-20T05:22:25;16.25;;;11.43;;
24801;SDS011;12898;50.520;12.152;2022-08-20T05:24:52;14.50;;;10.43;;
24801;SDS011;12898;50.520;12.152;2022-08-20T05:27:19;12.98;;;8.88;;
24801;SDS011;12898;50.520;12.152;2022-08-20T05:29:45;15.82;;;10.48;;
24801;SDS011;12898;50.520;12.152;2022-08-20T05:32:11;16.52;;;10.98;;
24801;SDS011;12898;50.520;12.152;2022-08-20T05:34:36;15.75;;;11.40;;
24801;SDS011;12898;50.520;12.152;2022-08-20T05:37:02;16.60;;;11.55;;
24801;SDS011;12898;50.520;12.152;2022-08-20T05:39:28;14.98;;;11.10;;
24801;SDS011;12898;50.520;12.152;2022-08-20T05:41:54;17.27;;;11.68;;
24801;SDS011;12898;50.520;12.152;2022-08-20T05:44:21;18.15;;;11.93;;
24801;SDS011;12898;50.520;12.152;2022-08-20T05:46:47;15.07;;;11.02;;
24801;SDS011;12898;50.520;12.152;2022-08-20T05:49:14;18.20;;;11.23;;
24801;SDS011;12898;50.520;12.152;2022-08-20T05:51:44;15.05;;;10.50;;
24801;SDS011;12898;50.520;12.152;2022-08-20T05:54:10;13.45;;;10.07;;
24801;SDS011;12898;50.520;12.152;2022-08-20T05:56:37;16.10;;;10.45;;
24801;SDS011;12898;50.520;12.152;2022-08-20T05:59:04;13.43;;;9.45;;
24801;SDS011;12898;50.520;12.152;2022-08-20T06:01:32;15.32;;;9.77;;
24801;SDS011;12898;50.520;12.152;2022-08-20T06:04:00;14.45;;;9.98;;
24801;SDS011;12898;50.520;12.152;2022-08-20T06:06:44;13.43;;;9.13;;
24801;SDS011;12898;50.520;12.152;2022-08-20T06:09:10;16.13;;;9.63;;
24801;SDS011;12898;50.520;12.152;2022-08-20T06:11:37;13.63;;;8.75;;
24801;SDS011;12898;50.520;12.152;2022-08-20T06:14:03;13.73;;;9.35;;
24801;SDS011;12898;50.520;12.152;2022-08-20T06:16:29;14.15;;;9.60;;
24801;SDS011;12898;50.520;12.152;2022-08-20T06:18:55;12.68;;;8.70;;
24801;SDS011;12898;50.520;12.152;2022-08-20T06:21:21;16.85;;;10.25;;
24801;SDS011;12898;50.520;12.152;2022-08-20T06:23:47;14.60;;;10.40;;
24801;SDS011;12898;50.520;12.152;2022-08-20T06:26:13;17.48;;;10.88;;
24801;SDS011;12898;50.520;12.152;2022-08-20T06:28:38;18.95;;;11.75;;
24801;SDS011;12898;50.520;12.152;2022-08-20T06:31:05;15.00;;;10.32;;
24801;SDS011;12898;50.520;12.152;2022-08-20T06:33:31;14.90;;;10.07;;
24801;SDS011;12898;50.520;12.152;2022-08-20T06:35:57;15.15;;;11.30;;
24801;SDS011;12898;50.520;12.152;2022-08-20T06:38:23;13.93;;;9.90;;
24801;SDS011;12898;50.520;12.152;2022-08-20T06:40:49;19.15;;;12.68;;
24801;SDS011;12898;50.520;12.152;2022-08-20T06:43:14;15.88;;;11.63;;
24801;SDS011;12898;50.520;12.152;2022-08-20T06:45:40;15.55;;;10.80;;
24801;SDS011;12898;50.520;12.152;2022-08-20T06:48:11;16.48;;;10.73;;
24801;SDS011;12898;50.520;12.152;2022-08-20T06:50:39;16.85;;;11.80;;
24801;SDS011;12898;50.520;12.152;2022-08-20T06:53:08;17.35;;;11.57;;
24801;SDS011;12898;50.520;12.152;2022-08-20T06:55:37;17.15;;;13.07;;
24801;SDS011;12898;50.520;12.152;2022-08-20T06:58:08;16.90;;;12.77;;
24801;SDS011;12898;50.520;12.152;2022-08-20T07:00:36;18.70;;;13.88;;
24801;SDS011;12898;50.520;12.152;2022-08-20T07:03:06;18.25;;;13.73;;
24801;SDS011;12898;50.520;12.152;2022-08-20T07:05:33;19.63;;;14.73;;
24801;SDS011;12898;50.520;12.152;2022-08-20T07:08:02;17.23;;;13.25;;
24801;SDS011;12898;50.520;12.152;2022-08-20T07:10:29;17.85;;;12.82;;
24801;SDS011;12898;50.520;12.152;2022-08-20T07:12:56;15.80;;;11.88;;
24801;SDS011;12898;50.520;12.152;2022-08-20T07:15:24;14.07;;;10.73;;
24801;SDS011;12898;50.520;12.152;2022-08-20T07:17:51;14.77;;;10.40;;
24801;SDS011;12898;50.520;12.152;2022-08-20T07:20:24;16.10;;;11.77;;
24801;SDS011;12898;50.520;12.152;2022-08-20T07:22:51;16.63;;;11.52;;
24801;SDS011;12898;50.520;12.152;2022-08-20T07:25:18;14.63;;;11.65;;
24801;SDS011;12898;50.520;12.152;2022-08-20T07:27:45;16.52;;;12.63;;
24801;SDS011;12898;50.520;12.152;2022-08-20T07:30:15;17.40;;;11.50;;
24801;SDS011;12898;50.520;12.152;2022-08-20T07:33:06;14.68;;;10.70;;
24801;SDS011;12898;50.520;12.152;2022-08-20T07:35:32;13.18;;;9.70;;
24801;SDS011;12898;50.520;12.152;2022-08-20T07:37:57;15.25;;;10.20;;
24801;SDS011;12898;50.520;12.152;2022-08-20T07:40:24;12.30;;;8.77;;
24801;SDS011;12898;50.520;12.152;2022-08-20T07:42:53;11.80;;;8.10;;
24801;SDS011;12898;50.520;12.152;2022-08-20T07:45:20;11.27;;;8.25;;
24801;SDS011;12898;50.520;12.152;2022-08-20T07:47:47;13.82;;;8.57;;
24801;SDS011;12898;50.520;12.152;2022-08-20T07:50:15;12.50;;;8.35;;
24801;SDS011;12898;50.520;12.152;2022-08-20T07:52:44;13.65;;;8.30;;
24801;SDS011;12898;50.520;12.152;2022-08-20T07:55:11;14.13;;;8.30;;
24801;SDS011;12898;50.520;12.152;2022-08-20T07:57:40;13.38;;;9.10;;
24801;SDS011;12898;50.520;12.152;2022-08-20T08:00:07;15.40;;;8.63;;
24801;SDS011;12898;50.520;12.152;2022-08-20T08:02:36;11.75;;;8.55;;
24801;SDS011;12898;50.520;12.152;2022-08-20T08:05:02;13.88;;;8.75;;
24801;SDS011;12898;50.520;12.152;2022-08-20T08:07:29;11.27;;;7.93;;
24801;SDS011;12898;50.520;12.152;2022-08-20T08:09:56;9.98;;;7.45;;
24801;SDS011;12898;50.520;12.152;2022-08-20T08:12:22;11.15;;;8.27;;
24801;SDS011;12898;50.520;12.152;2022-08-20T08:14:50;11.93;;;8.10;;
24801;SDS011;12898;50.520;12.152;2022-08-20T08:17:15;12.85;;;8.30;;
24801;SDS011;12898;50.520;12.152;2022-08-20T08:19:43;12.30;;;8.15;;
24801;SDS011;12898;50.520;12.152;2022-08-20T08:22:13;11.80;;;8.20;;
24801;SDS011;12898;50.520;12.152;2022-08-20T08:24:42;9.60;;;6.57;;
24801;SDS011;12898;50.520;12.152;2022-08-20T08:27:11;10.30;;;7.30;;
24801;SDS011;12898;50.520;12.152;2022-08-20T08:29:38;11.57;;;8.25;;
24801;SDS011;12898;50.520;12.152;2022-08-20T08:32:04;12.05;;;7.70;;
24801;SDS011;12898;50.520;12.152;2022-08-20T08:34:31;11.35;;;7.97;;
24801;SDS011;12898;50.520;12.152;2022-08-20T08:37:00;10.20;;;7.18;;
24801;SDS011;12898;50.520;12.152;2022-08-20T08:39:30;10.57;;;7.57;;
24801;SDS011;12898;50.520;12.152;2022-08-20T08:41:58;12.48;;;6.95;;
24801;SDS011;12898;50.520;12.152;2022-08-20T08:44:29;9.95;;;7.45;;
24801;SDS011;12898;50.520;12.152;2022-08-20T08:47:02;10.68;;;7.10;;
24801;SDS011;12898;50.520;12.152;2022-08-20T08:49:37;13.70;;;8.35;;
24801;SDS011;12898;50.520;12.152;2022-08-20T08:52:05;13.77;;;8.35;;
24801;SDS011;12898;50.520;12.152;2022-08-20T08:54:54;12.25;;;8.55;;
24801;SDS011;12898;50.520;12.152;2022-08-20T08:57:23;12.68;;;9.02;;
24801;SDS011;12898;50.520;12.152;2022-08-20T09:00:03;11.65;;;8.18;;
24801;SDS011;12898;50.520;12.152;2022-08-20T09:02:34;12.32;;;8.68;;
24801;SDS011;12898;50.520;12.152;2022-08-20T09:05:03;11.35;;;8.02;;
24801;SDS011;12898;50.520;12.152;2022-08-20T09:07:39;14.60;;;9.30;;
24801;SDS011;12898;50.520;12.152;2022-08-20T09:10:09;11.25;;;8.65;;
24801;SDS011;12898;50.520;12.152;2022-08-20T09:12:35;11.50;;;8.52;;
24801;SDS011;12898;50.520;12.152;2022-08-20T09:15:00;11.38;;;6.72;;
24801;SDS011;12898;50.520;12.152;2022-08-20T09:17:26;9.80;;;6.45;;
24801;SDS011;12898;50.520;12.152;2022-08-20T09:19:52;10.25;;;7.50;;
24801;SDS011;12898;50.520;12.152;2022-08-20T09:22:20;11.95;;;7.47;;
24801;SDS011;12898;50.520;12.152;2022-08-20T09:24:49;11.57;;;7.80;;
24801;SDS011;12898;50.520;12.152;2022-08-20T09:27:15;11.23;;;7.53;;
24801;SDS011;12898;50.520;12.152;2022-08-20T09:29:42;10.45;;;7.70;;
24801;SDS011;12898;50.520;12.152;2022-08-20T09:32:09;11.68;;;7.68;;
24801;SDS011;12898;50.520;12.152;2022-08-20T09:34:42;10.80;;;7.90;;
24801;SDS011;12898;50.520;12.152;2022-08-20T09:37:11;10.90;;;8.00;;
24801;SDS011;12898;50.520;12.152;2022-08-20T09:39:38;12.10;;;7.93;;
24801;SDS011;12898;50.520;12.152;2022-08-20T09:42:05;11.40;;;7.82;;
24801;SDS011;12898;50.520;12.152;2022-08-20T09:44:34;12.55;;;7.20;;
24801;SDS011;12898;50.520;12.152;2022-08-20T09:47:00;11.15;;;7.20;;
24801;SDS011;12898;50.520;12.152;2022-08-20T09:49:25;11.60;;;7.88;;
24801;SDS011;12898;50.520;12.152;2022-08-20T09:51:51;10.10;;;7.85;;
24801;SDS011;12898;50.520;12.152;2022-08-20T09:54:17;13.60;;;8.50;;
24801;SDS011;12898;50.520;12.152;2022-08-20T09:56:44;10.98;;;7.18;;
24801;SDS011;12898;50.520;12.152;2022-08-20T09:59:09;11.48;;;7.63;;
24801;SDS011;12898;50.520;12.152;2022-08-20T10:01:38;11.80;;;7.55;;
24801;SDS011;12898;50.520;12.152;2022-08-20T10:04:04;12.77;;;7.47;;
24801;SDS011;12898;50.520;12.152;2022-08-20T10:06:30;11.65;;;7.32;;
24801;SDS011;12898;50.520;12.152;2022-08-20T10:08:56;11.10;;;7.53;;
24801;SDS011;12898;50.520;12.152;2022-08-20T10:11:21;10.13;;;7.03;;
24801;SDS011;12898;50.520;12.152;2022-08-20T10:13:47;13.38;;;7.72;;
24801;SDS011;12898;50.520;12.152;2022-08-20T10:16:13;10.50;;;6.72;;
24801;SDS011;12898;50.520;12.152;2022-08-20T10:18:38;12.02;;;6.90;;
24801;SDS011;12898;50.520;12.152;2022-08-20T10:21:08;10.98;;;6.72;;
24801;SDS011;12898;50.520;12.152;2022-08-20T10:23:35;9.88;;;6.82;;
24801;SDS011;12898;50.520;12.152;2022-08-20T10:26:01;8.82;;;6.57;;
24801;SDS011;12898;50.520;12.152;2022-08-20T10:28:27;9.48;;;6.75;;
24801;SDS011;12898;50.520;12.152;2022-08-20T10:30:52;9.48;;;6.85;;
24801;SDS011;12898;50.520;12.152;2022-08-20T10:33:18;10.32;;;6.78;;
24801;SDS011;12898;50.520;12.152;2022-08-20T10:35:44;8.75;;;6.45;;
24801;SDS011;12898;50.520;12.152;2022-08-20T10:38:10;11.25;;;7.45;;
24801;SDS011;12898;50.520;12.152;2022-08-20T10:40:35;12.85;;;6.22;;
24801;SDS011;12898;50.520;12.152;2022-08-20T10:43:01;9.95;;;7.20;;
24801;SDS011;12898;50.520;12.152;2022-08-20T10:45:27;10.52;;;7.05;;
24801;SDS011;12898;50.520;12.152;2022-08-20T10:47:52;11.05;;;7.55;;
24801;SDS011;12898;50.520;12.152;2022-08-20T10:50:18;10.55;;;7.15;;
24801;SDS011;12898;50.520;12.152;2022-08-20T10:52:44;10.65;;;7.55;;
24801;SDS011;12898;50.520;12.152;2022-08-20T10:55:11;9.15;;;6.88;;
24801;SDS011;12898;50.520;12.152;2022-08-20T10:57:37;10.07;;;7.35;;
24801;SDS011;12898;50.520;12.152;2022-08-20T11:00:04;8.82;;;6.95;;
24801;SDS011;12898;50.520;12.152;2022-08-20T11:02:33;9.30;;;6.90;;
24801;SDS011;12898;50.520;12.152;2022-08-20T11:04:59;11.00;;;6.88;;
24801;SDS011;12898;50.520;12.152;2022-08-20T11:09:56;10.68;;;6.70;;
24801;SDS011;12898;50.520;12.152;2022-08-20T11:12:23;9.38;;;7.07;;
24801;SDS011;12898;50.520;12.152;2022-08-20T11:14:49;10.50;;;7.30;;
24801;SDS011;12898;50.520;12.152;2022-08-20T11:17:35;9.60;;;6.60;;
24801;SDS011;12898;50.520;12.152;2022-08-20T11:20:04;11.95;;;7.20;;
24801;SDS011;12898;50.520;12.152;2022-08-20T11:22:36;10.05;;;6.90;;
24801;SDS011;12898;50.520;12.152;2022-08-20T11:25:02;9.95;;;7.00;;
24801;SDS011;12898;50.520;12.152;2022-08-20T11:27:31;9.63;;;6.68;;
24801;SDS011;12898;50.520;12.152;2022-08-20T11:30:00;9.30;;;6.90;;
24801;SDS011;12898;50.520;12.152;2022-08-20T11:32:28;9.85;;;6.53;;
24801;SDS011;12898;50.520;12.152;2022-08-20T11:34:53;10.75;;;6.55;;
24801;SDS011;12898;50.520;12.152;2022-08-20T11:37:20;12.10;;;7.35;;
24801;SDS011;12898;50.520;12.152;2022-08-20T11:39:48;8.60;;;6.65;;
24801;SDS011;12898;50.520;12.152;2022-08-20T11:42:14;7.88;;;6.10;;
24801;SDS011;12898;50.520;12.152;2022-08-20T11:44:40;10.15;;;7.00;;
24801;SDS011;12898;50.520;12.152;2022-08-20T11:47:06;9.57;;;7.13;;
24801;SDS011;12898;50.520;12.152;2022-08-20T11:49:33;10.70;;;7.07;;
24801;SDS011;12898;50.520;12.152;2022-08-20T11:52:00;11.05;;;7.18;;
24801;SDS011;12898;50.520;12.152;2022-08-20T11:54:26;9.45;;;6.80;;
24801;SDS011;12898;50.520;12.152;2022-08-20T11:56:56;10.65;;;7.03;;
24801;SDS011;12898;50.520;12.152;2022-08-20T11:59:23;12.65;;;7.55;;
24801;SDS011;12898;50.520;12.152;2022-08-20T12:01:50;10.02;;;6.63;;
24801;SDS011;12898;50.520;12.152;2022-08-20T12:04:18;10.95;;;7.07;;
24801;SDS011;12898;50.520;12.152;2022-08-20T12:06:44;10.57;;;6.72;;
24801;SDS011;12898;50.520;12.152;2022-08-20T12:09:10;11.70;;;7.55;;
24801;SDS011;12898;50.520;12.152;2022-08-20T12:11:36;11.35;;;7.38;;
24801;SDS011;12898;50.520;12.152;2022-08-20T12:14:02;10.88;;;7.70;;
24801;SDS011;12898;50.520;12.152;2022-08-20T12:16:27;10.32;;;6.90;;
24801;SDS011;12898;50.520;12.152;2022-08-20T12:18:53;10.57;;;7.22;;
24801;SDS011;12898;50.520;12.152;2022-08-20T12:21:19;10.50;;;7.40;;
24801;SDS011;12898;50.520;12.152;2022-08-20T12:23:44;10.63;;;6.55;;
24801;SDS011;12898;50.520;12.152;2022-08-20T12:26:10;11.75;;;8.27;;
24801;SDS011;12898;50.520;12.152;2022-08-20T12:28:36;11.55;;;8.25;;
24801;SDS011;12898;50.520;12.152;2022-08-20T12:31:05;11.30;;;8.60;;
24801;SDS011;12898;50.520;12.152;2022-08-20T12:33:31;14.02;;;8.27;;
24801;SDS011;12898;50.520;12.152;2022-08-20T12:35:56;11.07;;;7.97;;
24801;SDS011;12898;50.520;12.152;2022-08-20T12:38:22;11.30;;;8.45;;
24801;SDS011;12898;50.520;12.152;2022-08-20T12:40:48;11.25;;;8.32;;
24801;SDS011;12898;50.520;12.152;2022-08-20T12:43:13;10.05;;;7.65;;
24801;SDS011;12898;50.520;12.152;2022-08-20T12:45:39;12.50;;;7.65;;
24801;SDS011;12898;50.520;12.152;2022-08-20T12:48:06;10.32;;;7.35;;
24801;SDS011;12898;50.520;12.152;2022-08-20T12:50:36;11.13;;;8.50;;
24801;SDS011;12898;50.520;12.152;2022-08-20T12:53:04;11.30;;;8.05;;
24801;SDS011;12898;50.520;12.152;2022-08-20T12:55:30;11.88;;;8.55;;
24801;SDS011;12898;50.520;12.152;2022-08-20T12:57:58;10.32;;;7.82;;
24801;SDS011;12898;50.520;12.152;2022-08-20T13:02:55;10.35;;;7.45;;
24801;SDS011;12898;50.520;12.152;2022-08-20T13:05:23;12.65;;;8.27;;
24801;SDS011;12898;50.520;12.152;2022-08-20T13:07:49;13.10;;;8.32;;
24801;SDS011;12898;50.520;12.152;2022-08-20T13:10:21;11.73;;;8.25;;
24801;SDS011;12898;50.520;12.152;2022-08-20T13:12:55;12.23;;;8.52;;
24801;SDS011;12898;50.520;12.152;2022-08-20T13:15:21;11.93;;;8.27;;
24801;SDS011;12898;50.520;12.152;2022-08-20T13:17:57;11.30;;;8.55;;
24801;SDS011;12898;50.520;12.152;2022-08-20T13:20:26;13.07;;;8.77;;
24801;SDS011;12898;50.520;12.152;2022-08-20T13:22:53;11.40;;;8.57;;
24801;SDS011;12898;50.520;12.152;2022-08-20T13:25:20;11.75;;;8.52;;
24801;SDS011;12898;50.520;12.152;2022-08-20T13:27:46;12.25;;;8.85;;
24801;SDS011;12898;50.520;12.152;2022-08-20T13:30:14;11.60;;;8.20;;
24801;SDS011;12898;50.520;12.152;2022-08-20T13:32:42;14.52;;;8.90;;
24801;SDS011;12898;50.520;12.152;2022-08-20T13:35:08;13.45;;;9.15;;
24801;SDS011;12898;50.520;12.152;2022-08-20T13:37:36;14.98;;;9.68;;
24801;SDS011;12898;50.520;12.152;2022-08-20T13:40:03;12.75;;;9.18;;
24801;SDS011;12898;50.520;12.152;2022-08-20T13:42:31;11.63;;;8.52;;
24801;SDS011;12898;50.520;12.152;2022-08-20T13:44:57;12.52;;;8.93;;
24801;SDS011;12898;50.520;12.152;2022-08-20T13:47:24;12.50;;;9.20;;
24801;SDS011;12898;50.520;12.152;2022-08-20T13:50:02;12.38;;;9.00;;
24801;SDS011;12898;50.520;12.152;2022-08-20T13:52:43;12.95;;;9.05;;
24801;SDS011;12898;50.520;12.152;2022-08-20T13:55:10;14.00;;;9.13;;
24801;SDS011;12898;50.520;12.152;2022-08-20T13:57:40;11.40;;;7.95;;
24801;SDS011;12898;50.520;12.152;2022-08-20T14:00:07;10.60;;;7.60;;
24801;SDS011;12898;50.520;12.152;2022-08-20T14:02:37;10.98;;;7.53;;
24801;SDS011;12898;50.520;12.152;2022-08-20T14:05:07;11.60;;;7.30;;
24801;SDS011;12898;50.520;12.152;2022-08-20T14:07:34;12.65;;;8.27;;
24801;SDS011;12898;50.520;12.152;2022-08-20T14:10:15;10.27;;;7.60;;
24801;SDS011;12898;50.520;12.152;2022-08-20T14:12:53;11.70;;;8.02;;
24801;SDS011;12898;50.520;12.152;2022-08-20T14:15:19;10.52;;;6.90;;
24801;SDS011;12898;50.520;12.152;2022-08-20T14:17:50;13.05;;;7.75;;
24801;SDS011;12898;50.520;12.152;2022-08-20T14:20:22;11.18;;;6.80;;
24801;SDS011;12898;50.520;12.152;2022-08-20T14:22:51;6.80;;;5.47;;
24801;SDS011;12898;50.520;12.152;2022-08-20T14:25:17;10.15;;;6.88;;
24801;SDS011;12898;50.520;12.152;2022-08-20T14:27:46;8.77;;;5.85;;
24801;SDS011;12898;50.520;12.152;2022-08-20T14:30:13;6.95;;;5.20;;
24801;SDS011;12898;50.520;12.152;2022-08-20T14:32:43;6.45;;;5.20;;
24801;SDS011;12898;50.520;12.152;2022-08-20T14:35:09;7.78;;;5.40;;
24801;SDS011;12898;50.520;12.152;2022-08-20T14:37:36;9.88;;;4.95;;